Time;durP1;ratioP1;P1;durP2;ratioP2;P2;SDS_P1;SDS_P2;PMS_P1;PMS_P2;Temp;Humidity;BMP_temperature;BMP_pressure;BME280_temperature;BME280_humidity;BME280_pressure;Samples;Min_cycle;Max_cycle;Signal;HPM_P1;HPM_P2
2023/12/27 00:01:00;;;;;;;0.77;0.77;;;;;;;;;;5770471;28;20039;-82
2023/12/27 00:03:50;;;;;;;4.18;0.98;;;;;;;;;;5754198;28;20134;-82
2023/12/27 00:06:41;;;;;;;4.68;0.80;;;;;;;;;;5769814;28;20051;-82
2023/12/27 00:09:32;;;;;;;1.98;0.82;;;;;;;;;;5769629;28;20047;-85
2023/12/27 00:12:25;;;;;;;2.38;1.65;;;;;;;;;;5771018;28;20155;-82
2023/12/27 00:15:18;;;;;;;2.67;1.23;;;;;;;;;;5754210;28;20146;-82
2023/12/27 00:18:09;;;;;;;1.88;1.08;;;;;;;;;;5753622;28;20059;-83
2023/12/27 00:21:00;;;;;;;3.30;2.15;;;;;;;;;;5770680;28;20053;-81
2023/12/27 00:23:51;;;;;;;3.30;1.73;;;;;;;;;;5770093;28;20047;-83
2023/12/27 00:26:42;;;;;;;1.08;0.82;;;;;;;;;;5769465;28;20043;-84
2023/12/27 00:29:33;;;;;;;1.65;1.40;;;;;;;;;;5753752;28;20055;-81
2023/12/27 00:32:24;;;;;;;2.75;0.60;;;;;;;;;;5769605;28;20057;-82
2023/12/27 00:35:14;;;;;;;1.73;1.20;;;;;;;;;;5769575;28;20055;-82
2023/12/27 00:38:05;;;;;;;5.00;1.52;;;;;;;;;;5769392;28;20055;-83
2023/12/27 00:40:56;;;;;;;0.55;0.55;;;;;;;;;;5771917;28;20047;-82
2023/12/27 00:43:47;;;;;;;0.40;0.40;;;;;;;;;;5757753;28;20047;-85
2023/12/27 00:46:37;;;;;;;1.33;0.65;;;;;;;;;;5757491;28;20083;-83
2023/12/27 00:49:28;;;;;;;0.70;0.55;;;;;;;;;;5773328;28;20047;-83
2023/12/27 00:52:19;;;;;;;10.60;0.82;;;;;;;;;;5773069;28;20110;-83
2023/12/27 00:55:10;;;;;;;1.45;0.90;;;;;;;;;;5773111;28;20055;-85
2023/12/27 00:58:01;;;;;;;4.60;0.90;;;;;;;;;;5757358;28;20062;-79
2023/12/27 01:00:52;;;;;;;1.65;1.13;;;;;;;;;;5774394;28;20126;-83
2023/12/27 01:03:43;;;;;;;1.08;0.75;;;;;;;;;;5784284;28;20046;-83
2023/12/27 01:06:34;;;;;;;2.28;0.90;;;;;;;;;;5788784;28;20055;-83
2023/12/27 01:09:26;;;;;;;0.35;0.35;;;;;;;;;;5773233;28;20066;-84
2023/12/27 01:12:17;;;;;;;2.05;1.30;;;;;;;;;;5788656;28;20134;-82
2023/12/27 01:15:08;;;;;;;1.48;1.10;;;;;;;;;;5788692;28;20740;-83
2023/12/27 01:17:59;;;;;;;3.90;1.85;;;;;;;;;;5774302;28;20062;-83
2023/12/27 01:20:50;;;;;;;5.57;1.67;;;;;;;;;;5788690;28;20051;-82
2023/12/27 01:23:41;;;;;;;1.45;0.93;;;;;;;;;;5788475;28;20155;-83
2023/12/27 01:26:32;;;;;;;1.15;0.55;;;;;;;;;;5773949;28;20102;-83
2023/12/27 01:29:22;;;;;;;7.15;1.15;;;;;;;;;;5788569;28;20078;-83
2023/12/27 01:32:13;;;;;;;2.58;0.47;;;;;;;;;;5788277;28;20057;-82
2023/12/27 01:35:05;;;;;;;0.93;0.77;;;;;;;;;;5788275;28;20087;-83
2023/12/27 01:37:56;;;;;;;2.03;1.67;;;;;;;;;;5774121;28;20061;-82
2023/12/27 01:40:51;;;;;;;3.25;1.38;;;;;;;;;;5773537;28;20074;-84
2023/12/27 01:43:42;;;;;;;0.82;0.57;;;;;;;;;;5772427;28;20051;-83
2023/12/27 01:46:33;;;;;;;1.85;1.05;;;;;;;;;;5773592;28;20154;-82
2023/12/27 01:49:24;;;;;;;0.77;0.73;;;;;;;;;;5772243;28;20413;-82
2023/12/27 01:52:15;;;;;;;0.57;0.57;;;;;;;;;;5786654;28;20055;-82
2023/12/27 01:55:09;;;;;;;0.40;0.40;;;;;;;;;;5787905;28;20498;-82
2023/12/27 01:58:01;;;;;;;0.30;0.30;;;;;;;;;;5773566;28;20054;-82
2023/12/27 02:00:53;;;;;;;1.95;0.73;;;;;;;;;;5773275;28;20420;-82
2023/12/27 02:03:44;;;;;;;0.30;0.30;;;;;;;;;;5787680;28;20081;-82
2023/12/27 02:06:35;;;;;;;0.43;0.43;;;;;;;;;;5773192;28;20516;-83
2023/12/27 02:09:26;;;;;;;0.32;0.32;;;;;;;;;;5787626;28;20106;-83
2023/12/27 02:12:29;;;;;;;1.75;1.30;;;;;;;;;;5787193;28;20047;-84
2023/12/27 02:15:20;;;;;;;0.55;0.50;;;;;;;;;;5787392;28;20058;-84
2023/12/27 02:18:11;;;;;;;0.63;0.63;;;;;;;;;;5771220;28;20054;-83
2023/12/27 02:21:02;;;;;;;0.60;0.60;;;;;;;;;;5786991;28;20086;-82
2023/12/27 02:23:58;;;;;;;0.73;0.65;;;;;;;;;;5772911;28;20483;-82
2023/12/27 02:26:48;;;;;;;0.30;0.30;;;;;;;;;;5771987;28;20095;-82
2023/12/27 02:29:39;;;;;;;2.20;0.50;;;;;;;;;;5787100;28;20047;-82
2023/12/27 02:32:31;;;;;;;0.45;0.45;;;;;;;;;;5772520;28;20442;-82
2023/12/27 02:35:22;;;;;;;0.47;0.47;;;;;;;;;;5786856;28;20047;-82
2023/12/27 02:38:13;;;;;;;0.38;0.38;;;;;;;;;;5772327;28;20157;-82
2023/12/27 02:41:04;;;;;;;0.52;0.50;;;;;;;;;;5771925;28;20059;-81
2023/12/27 02:43:54;;;;;;;0.50;0.50;;;;;;;;;;5772896;28;20051;-81
2023/12/27 02:46:45;;;;;;;0.40;0.40;;;;;;;;;;5786449;28;20047;-81
2023/12/27 02:49:36;;;;;;;0.55;0.55;;;;;;;;;;5786624;28;20039;-81
2023/12/27 02:52:27;;;;;;;0.52;0.52;;;;;;;;;;5786970;28;20513;-82
2023/12/27 02:55:18;;;;;;;0.60;0.60;;;;;;;;;;5786516;28;20079;-82
2023/12/27 02:58:09;;;;;;;0.40;0.40;;;;;;;;;;5786388;28;20533;-82
2023/12/27 03:00:59;;;;;;;0.20;0.20;;;;;;;;;;5772273;28;20130;-81
2023/12/27 03:03:50;;;;;;;0.40;0.40;;;;;;;;;;5786245;28;20055;-83
2023/12/27 03:06:41;;;;;;;0.45;0.45;;;;;;;;;;5786281;28;20051;-82
2023/12/27 03:09:33;;;;;;;0.70;0.70;;;;;;;;;;5771849;28;20043;-81
2023/12/27 03:12:24;;;;;;;0.85;0.80;;;;;;;;;;5785945;28;20050;-83
2023/12/27 03:15:15;;;;;;;1.15;1.00;;;;;;;;;;5786568;28;20477;-81
2023/12/27 03:18:06;;;;;;;0.63;0.63;;;;;;;;;;5770104;28;20079;-80
2023/12/27 03:20:58;;;;;;;0.98;0.40;;;;;;;;;;5786668;28;20058;-82
2023/12/27 03:23:49;;;;;;;1.13;1.00;;;;;;;;;;5771402;28;20059;-81
2023/12/27 03:26:39;;;;;;;1.25;0.80;;;;;;;;;;5771408;28;20043;-82
2023/12/27 03:29:30;;;;;;;0.30;0.30;;;;;;;;;;5770362;28;20047;-82
2023/12/27 03:32:24;;;;;;;0.90;0.88;;;;;;;;;;5785997;28;20409;-81
2023/12/27 03:35:14;;;;;;;3.20;0.63;;;;;;;;;;5770204;28;20059;-82
2023/12/27 03:38:05;;;;;;;0.43;0.43;;;;;;;;;;5786068;28;20134;-82
2023/12/27 03:40:57;;;;;;;0.30;0.30;;;;;;;;;;5786590;28;20183;-84
2023/12/27 03:43:48;;;;;;;3.40;1.35;;;;;;;;;;5785885;28;20055;-82
2023/12/27 03:46:38;;;;;;;0.57;0.57;;;;;;;;;;5786056;28;20537;-81
2023/12/27 03:49:29;;;;;;;0.43;0.43;;;;;;;;;;5786102;28;20415;-82
2023/12/27 03:52:20;;;;;;;0.60;0.50;;;;;;;;;;5785739;28;23445;-81
2023/12/27 03:55:11;;;;;;;1.55;0.75;;;;;;;;;;5771041;28;20051;-81
2023/12/27 03:58:02;;;;;;;0.40;0.40;;;;;;;;;;5785781;28;20055;-80
2023/12/27 04:00:53;;;;;;;0.63;0.63;;;;;;;;;;5786155;28;20103;-81
2023/12/27 04:03:43;;;;;;;0.30;0.30;;;;;;;;;;5769752;28;20050;-81
2023/12/27 04:06:34;;;;;;;0.20;0.20;;;;;;;;;;5769835;28;20569;-82
2023/12/27 04:09:25;;;;;;;0.10;0.10;;;;;;;;;;5785643;28;20050;-82
2023/12/27 04:12:16;;;;;;;10.30;0.93;;;;;;;;;;5785455;28;20051;-81
2023/12/27 04:15:07;;;;;;;0.10;0.10;;;;;;;;;;5786782;28;20070;-80
2023/12/27 04:17:58;;;;;;;0.82;0.82;;;;;;;;;;5790468;28;20475;-81
2023/12/27 04:20:50;;;;;;;2.92;1.05;;;;;;;;;;5774218;28;20446;-82
2023/12/27 04:23:40;;;;;;;7.78;1.17;;;;;;;;;;5773960;28;20053;-82
2023/12/27 04:26:31;;;;;;;0.17;0.17;;;;;;;;;;5774993;28;20051;-81
2023/12/27 04:29:22;;;;;;;0.32;0.32;;;;;;;;;;5789585;28;20044;-81
2023/12/27 04:32:13;;;;;;;0.20;0.20;;;;;;;;;;5789597;28;20047;-81
2023/12/27 04:35:04;;;;;;;0.47;0.47;;;;;;;;;;5773703;28;20073;-80
2023/12/27 04:37:55;;;;;;;0.22;0.22;;;;;;;;;;5775499;28;20055;-82
2023/12/27 04:40:46;;;;;;;1.30;1.02;;;;;;;;;;5789246;28;20047;-81
2023/12/27 04:43:37;;;;;;;0.80;0.32;;;;;;;;;;5773251;28;20043;-81
2023/12/27 04:46:28;;;;;;;1.45;0.40;;;;;;;;;;5789344;28;20051;-81
2023/12/27 04:49:19;;;;;;;0.82;0.80;;;;;;;;;;5774588;28;20051;-81
2023/12/27 04:52:10;;;;;;;0.60;0.60;;;;;;;;;;5773375;28;20382;-80
2023/12/27 04:55:00;;;;;;;2.50;0.65;;;;;;;;;;5789671;28;20051;-81
2023/12/27 04:57:51;;;;;;;0.30;0.30;;;;;;;;;;5774836;28;20051;-81
2023/12/27 05:00:42;;;;;;;0.73;0.73;;;;;;;;;;5774331;28;20175;-81
2023/12/27 05:03:40;;;;;;;0.40;0.40;;;;;;;;;;5788746;28;20394;-82
2023/12/27 05:06:31;;;;;;;1.00;0.85;;;;;;;;;;5771277;28;20520;-81
2023/12/27 05:09:22;;;;;;;0.20;0.20;;;;;;;;;;5788726;28;20134;-82
2023/12/27 05:12:13;;;;;;;0.75;0.75;;;;;;;;;;5774137;28;20051;-81
2023/12/27 05:15:04;;;;;;;0.30;0.30;;;;;;;;;;5788742;28;20087;-83
2023/12/27 05:17:55;;;;;;;0.20;0.20;;;;;;;;;;5773362;28;20055;-81
2023/12/27 05:20:46;;;;;;;0.20;0.20;;;;;;;;;;5788360;28;20094;-82
2023/12/27 05:23:37;;;;;;;1.45;1.02;;;;;;;;;;5788563;28;20070;-81
2023/12/27 05:26:28;;;;;;;2.78;0.40;;;;;;;;;;5773708;28;20047;-79
2023/12/27 05:29:19;;;;;;;1.85;0.73;;;;;;;;;;5773790;28;20063;-81
2023/12/27 05:32:11;;;;;;;0.20;0.20;;;;;;;;;;5788544;28;20066;-80
2023/12/27 05:35:02;;;;;;;0.75;0.75;;;;;;;;;;5788518;28;20051;-80
2023/12/27 05:37:53;;;;;;;1.48;0.88;;;;;;;;;;5788810;28;20047;-81
2023/12/27 05:40:44;;;;;;;0.10;0.10;;;;;;;;;;5772308;28;20358;-80
2023/12/27 05:43:35;;;;;;;0.10;0.10;;;;;;;;;;5788098;28;20060;-82
2023/12/27 05:46:26;;;;;;;0.98;0.60;;;;;;;;;;5788111;28;20047;-81
2023/12/27 05:49:17;;;;;;;1.05;0.70;;;;;;;;;;5788371;28;20058;-81
2023/12/27 05:52:08;;;;;;;2.80;1.40;;;;;;;;;;5787772;28;20048;-80
2023/12/27 05:54:59;;;;;;;0.35;0.30;;;;;;;;;;5773974;28;20063;-81
2023/12/27 05:57:49;;;;;;;1.85;0.45;;;;;;;;;;5773442;28;20355;-81
2023/12/27 06:00:40;;;;;;;2.35;1.20;;;;;;;;;;5773145;28;20118;-81
2023/12/27 06:03:31;;;;;;;0.63;0.63;;;;;;;;;;5771773;28;20109;-81
2023/12/27 06:06:22;;;;;;;2.03;1.00;;;;;;;;;;5787509;28;20043;-81
2023/12/27 06:09:13;;;;;;;4.28;0.73;;;;;;;;;;5787538;28;20058;-81
2023/12/27 06:12:04;;;;;;;0.20;0.20;;;;;;;;;;5787377;28;20047;-81
2023/12/27 06:14:55;;;;;;;1.08;0.77;;;;;;;;;;5773310;28;20059;-81
2023/12/27 06:17:46;;;;;;;0.50;0.50;;;;;;;;;;5772895;28;20079;-81
2023/12/27 06:20:37;;;;;;;0.20;0.20;;;;;;;;;;5771366;28;20047;-81
2023/12/27 06:23:28;;;;;;;3.30;0.68;;;;;;;;;;5787210;28;20051;-81
2023/12/27 06:26:19;;;;;;;1.45;0.60;;;;;;;;;;5771158;28;20050;-80
2023/12/27 06:29:10;;;;;;;0.93;0.90;;;;;;;;;;5787384;28;20155;-80
2023/12/27 06:32:02;;;;;;;0.52;0.52;;;;;;;;;;5772480;28;20423;-80
2023/12/27 06:34:53;;;;;;;0.98;0.55;;;;;;;;;;5787586;28;20070;-81
2023/12/27 06:37:44;;;;;;;0.52;0.45;;;;;;;;;;5786034;28;20051;-81
2023/12/27 06:40:36;;;;;;;0.65;0.40;;;;;;;;;;5786558;28;20465;-80
2023/12/27 06:43:27;;;;;;;0.55;0.55;;;;;;;;;;5786652;28;20047;-80
2023/12/27 06:46:20;;;;;;;0.88;0.80;;;;;;;;;;5786579;28;20106;-80
2023/12/27 06:49:11;;;;;;;0.20;0.20;;;;;;;;;;5786878;28;20062;-80
2023/12/27 06:52:02;;;;;;;0.55;0.55;;;;;;;;;;5786674;28;20083;-80
2023/12/27 06:54:52;;;;;;;1.38;1.08;;;;;;;;;;5772440;28;20062;-80
2023/12/27 06:57:43;;;;;;;0.70;0.70;;;;;;;;;;5786685;28;20050;-81
2023/12/27 07:00:35;;;;;;;0.63;0.63;;;;;;;;;;5786474;28;20047;-81
2023/12/27 07:03:26;;;;;;;1.38;1.27;;;;;;;;;;5786557;28;20051;-80
2023/12/27 07:06:17;;;;;;;5.57;1.58;;;;;;;;;;5771821;28;20413;-80
2023/12/27 07:09:09;;;;;;;1.02;0.93;;;;;;;;;;5771763;28;20102;-80
2023/12/27 07:12:00;;;;;;;0.90;0.63;;;;;;;;;;5786739;28;20505;-80
2023/12/27 07:14:51;;;;;;;7.00;1.50;;;;;;;;;;5771887;28;20139;-80
2023/12/27 07:17:42;;;;;;;17.38;2.30;;;;;;;;;;5771573;28;20073;-80
2023/12/27 07:20:32;;;;;;;0.95;0.93;;;;;;;;;;5786448;28;20130;-80
2023/12/27 07:23:23;;;;;;;1.42;1.08;;;;;;;;;;5785975;28;20488;-80
2023/12/27 07:26:14;;;;;;;2.10;1.55;;;;;;;;;;5786197;28;20055;-81
2023/12/27 07:29:05;;;;;;;1.95;1.08;;;;;;;;;;5786196;28;20055;-79
2023/12/27 07:31:56;;;;;;;0.70;0.60;;;;;;;;;;5786598;28;20061;-80
2023/12/27 07:34:46;;;;;;;0.82;0.82;;;;;;;;;;5785913;28;20051;-80
2023/12/27 07:37:37;;;;;;;0.60;0.60;;;;;;;;;;5785849;28;20047;-81
2023/12/27 07:40:28;;;;;;;0.60;0.60;;;;;;;;;;5785934;28;20047;-80
2023/12/27 07:43:22;;;;;;;0.73;0.40;;;;;;;;;;5785871;28;20051;-82
2023/12/27 07:46:13;;;;;;;1.55;0.95;;;;;;;;;;5785611;28;20055;-80
2023/12/27 07:49:04;;;;;;;0.82;0.75;;;;;;;;;;5786757;28;20051;-80
2023/12/27 07:51:55;;;;;;;1.98;0.63;;;;;;;;;;5790960;28;20130;-80
2023/12/27 07:54:46;;;;;;;0.98;0.88;;;;;;;;;;5790438;28;20460;-81
2023/12/27 07:57:36;;;;;;;4.38;1.17;;;;;;;;;;5790593;28;20044;-82
2023/12/27 08:00:27;;;;;;;1.52;1.13;;;;;;;;;;5775543;28;20054;-81
2023/12/27 08:03:19;;;;;;;1.65;0.73;;;;;;;;;;5790316;28;20054;-81
2023/12/27 08:06:10;;;;;;;13.00;1.52;;;;;;;;;;5775603;28;20186;-81
2023/12/27 08:09:01;;;;;;;0.68;0.68;;;;;;;;;;5790393;28;20070;-80
2023/12/27 08:11:52;;;;;;;0.80;0.60;;;;;;;;;;5790843;28;20447;-81
2023/12/27 08:14:43;;;;;;;0.77;0.77;;;;;;;;;;5789862;28;20039;-81
2023/12/27 08:17:34;;;;;;;0.40;0.40;;;;;;;;;;5790014;28;20047;-81
2023/12/27 08:20:25;;;;;;;1.25;0.75;;;;;;;;;;5790042;28;20050;-81
2023/12/27 08:23:16;;;;;;;0.47;0.47;;;;;;;;;;5775080;28;20122;-80
2023/12/27 08:26:08;;;;;;;1.10;1.00;;;;;;;;;;5789198;28;20054;-81
2023/12/27 08:28:59;;;;;;;5.60;2.60;;;;;;;;;;5790144;28;20051;-80
2023/12/27 08:31:50;;;;;;;11.02;1.25;;;;;;;;;;5775284;28;20047;-81
2023/12/27 08:34:41;;;;;;;1.85;1.75;;;;;;;;;;5789344;28;20190;-81
2023/12/27 08:37:32;;;;;;;1.90;1.30;;;;;;;;;;5774877;28;20059;-80
2023/12/27 08:40:23;;;;;;;1.08;0.98;;;;;;;;;;5773452;28;20062;-81
2023/12/27 08:43:14;;;;;;;2.63;1.38;;;;;;;;;;5789224;28;20049;-80
2023/12/27 08:46:09;;;;;;;0.95;0.65;;;;;;;;;;5757602;28;20047;-80
2023/12/27 08:49:00;;;;;;;0.55;0.55;;;;;;;;;;5789893;28;20059;-81
2023/12/27 08:51:51;;;;;;;0.68;0.68;;;;;;;;;;5773314;28;20059;-81
2023/12/27 08:54:41;;;;;;;6.28;1.60;;;;;;;;;;5789258;28;20051;-80
2023/12/27 08:57:33;;;;;;;7.68;1.20;;;;;;;;;;5789078;28;20136;-80
2023/12/27 09:00:24;;;;;;;8.20;0.63;;;;;;;;;;5788728;28;20047;-80
2023/12/27 09:03:14;;;;;;;0.63;0.63;;;;;;;;;;5788956;28;20489;-80
2023/12/27 09:06:07;;;;;;;0.90;0.85;;;;;;;;;;5773015;28;20079;-79
2023/12/27 09:08:58;;;;;;;0.77;0.60;;;;;;;;;;5789540;28;20133;-81
2023/12/27 09:11:49;;;;;;;0.73;0.73;;;;;;;;;;5788872;28;20460;-81
2023/12/27 09:14:40;;;;;;;1.30;0.93;;;;;;;;;;5772849;28;20079;-80
2023/12/27 09:17:30;;;;;;;0.43;0.43;;;;;;;;;;5788738;28;20045;-81
2023/12/27 09:20:21;;;;;;;1.48;1.25;;;;;;;;;;5772780;28;20106;-80
2023/12/27 09:23:12;;;;;;;0.68;0.68;;;;;;;;;;5788512;28;20039;-81
2023/12/27 09:26:12;;;;;;;1.13;0.70;;;;;;;;;;5788405;28;20053;-79
2023/12/27 09:29:04;;;;;;;0.43;0.43;;;;;;;;;;5788640;28;20058;-80
2023/12/27 09:31:54;;;;;;;1.10;0.80;;;;;;;;;;5774184;28;20413;-80
2023/12/27 09:34:45;;;;;;;0.95;0.70;;;;;;;;;;5788275;28;20043;-81
2023/12/27 09:37:37;;;;;;;0.40;0.40;;;;;;;;;;5788184;28;20054;-80
2023/12/27 09:40:28;;;;;;;0.52;0.52;;;;;;;;;;5788252;28;20523;-81
2023/12/27 09:43:23;;;;;;;0.73;0.68;;;;;;;;;;5788331;28;20417;-80
2023/12/27 09:46:15;;;;;;;1.50;0.95;;;;;;;;;;5788061;28;20047;-79
2023/12/27 09:49:07;;;;;;;0.55;0.52;;;;;;;;;;5788044;28;20050;-79
2023/12/27 09:52:01;;;;;;;0.73;0.60;;;;;;;;;;5773754;28;20062;-80
2023/12/27 09:54:52;;;;;;;9.38;1.50;;;;;;;;;;5773751;28;20437;-80
2023/12/27 09:57:44;;;;;;;1.13;0.95;;;;;;;;;;5788146;28;20069;-81
2023/12/27 10:00:37;;;;;;;2.88;1.10;;;;;;;;;;5787865;28;20070;-80
2023/12/27 10:03:37;;;;;;;7.18;1.00;;;;;;;;;;5771776;28;20122;-80
2023/12/27 10:06:48;;;;;;;0.50;0.50;;;;;;;;;;5787527;28;20554;-80
2023/12/27 10:09:40;;;;;;;2.65;1.45;;;;;;;;;;5771848;28;20051;-80
2023/12/27 10:12:31;;;;;;;2.67;1.55;;;;;;;;;;5786556;28;20047;-81
2023/12/27 10:15:22;;;;;;;1.92;1.75;;;;;;;;;;5787588;28;20047;-80
2023/12/27 10:18:13;;;;;;;0.68;0.38;;;;;;;;;;5787504;28;20048;-79
2023/12/27 10:21:04;;;;;;;2.35;1.40;;;;;;;;;;5773006;28;20055;-81
2023/12/27 10:24:01;;;;;;;1.10;1.02;;;;;;;;;;5773019;28;20055;-79
2023/12/27 10:26:58;;;;;;;1.05;0.98;;;;;;;;;;5787437;28;20047;-81
2023/12/27 10:29:49;;;;;;;1.85;0.77;;;;;;;;;;5787930;28;20419;-80
2023/12/27 10:32:40;;;;;;;2.90;1.40;;;;;;;;;;5773184;28;20047;-81
2023/12/27 10:35:38;;;;;;;;;;;;;;;;;;5910803;27;20768;-82
2023/12/27 10:38:28;;;;;;;3.17;1.25;;;;;;;;;;5906733;28;20011;-80
2023/12/27 10:41:22;;;;;;;2.72;2.00;;;;;;;;;;5881666;28;20053;-80
2023/12/27 10:44:17;;;;;;;5.50;1.00;;;;;;;;;;5898578;28;20049;-81
2023/12/27 10:47:11;;;;;;;0.50;0.50;;;;;;;;;;5897804;28;20092;-79
2023/12/27 10:50:05;;;;;;;3.22;1.52;;;;;;;;;;5897685;28;20191;-81
2023/12/27 10:53:06;;;;;;;0.55;0.25;;;;;;;;;;5883346;28;20083;-80
2023/12/27 10:56:01;;;;;;;2.15;1.45;;;;;;;;;;5897328;28;20087;-80
2023/12/27 10:58:56;;;;;;;0.57;0.57;;;;;;;;;;5897118;28;20068;-79
2023/12/27 11:01:48;;;;;;;0.65;0.45;;;;;;;;;;5897012;28;20443;-80
2023/12/27 11:04:42;;;;;;;2.17;0.95;;;;;;;;;;5880692;28;20096;-80
2023/12/27 11:07:40;;;;;;;0.88;0.57;;;;;;;;;;5880594;28;20045;-80
2023/12/27 11:10:32;;;;;;;0.70;0.68;;;;;;;;;;5880601;28;20041;-79
2023/12/27 11:13:25;;;;;;;0.52;0.52;;;;;;;;;;5880295;28;20087;-79
2023/12/27 11:16:17;;;;;;;0.93;0.82;;;;;;;;;;5880545;28;20057;-79
2023/12/27 11:19:08;;;;;;;2.08;0.93;;;;;;;;;;5880383;28;20062;-79
2023/12/27 11:21:59;;;;;;;0.75;0.70;;;;;;;;;;5881226;28;20045;-79
2023/12/27 11:24:50;;;;;;;3.40;2.63;;;;;;;;;;5881109;28;20131;-79
2023/12/27 11:27:42;;;;;;;2.58;1.77;;;;;;;;;;5880233;28;20411;-79
2023/12/27 11:30:33;;;;;;;1.88;1.15;;;;;;;;;;5880343;28;20415;-79
2023/12/27 11:33:25;;;;;;;2.42;1.15;;;;;;;;;;5879859;28;20045;-79
2023/12/27 11:36:23;;;;;;;2.67;1.05;;;;;;;;;;5880412;28;20052;-79
2023/12/27 11:39:19;;;;;;;20.02;1.95;;;;;;;;;;5879848;28;20065;-78
2023/12/27 11:42:10;;;;;;;0.73;0.50;;;;;;;;;;5896421;28;20049;-79
2023/12/27 11:45:00;;;;;;;0.65;0.65;;;;;;;;;;5859291;28;20046;-79
2023/12/27 11:47:51;;;;;;;3.10;0.93;;;;;;;;;;5873045;28;20037;-79
2023/12/27 11:50:43;;;;;;;2.17;0.80;;;;;;;;;;5864491;28;20522;-78
2023/12/27 11:53:35;;;;;;;1.25;1.15;;;;;;;;;;5880609;28;20034;-79
2023/12/27 11:56:36;;;;;;;3.95;0.63;;;;;;;;;;5864520;28;20041;-79
2023/12/27 11:59:30;;;;;;;1.35;0.85;;;;;;;;;;5847850;28;20492;-79
2023/12/27 12:02:22;;;;;;;1.75;0.63;;;;;;;;;;5865580;28;20057;-81
2023/12/27 12:05:30;;;;;;;0.88;0.55;;;;;;;;;;5863841;28;20049;-80
2023/12/27 12:08:33;;;;;;;0.43;0.43;;;;;;;;;;5864104;28;20057;-78
2023/12/27 12:11:24;;;;;;;7.70;1.15;;;;;;;;;;5848486;28;20582;-79
2023/12/27 12:14:15;;;;;;;2.30;0.63;;;;;;;;;;5863666;28;20048;-79
2023/12/27 12:17:09;;;;;;;0.30;0.30;;;;;;;;;;5863605;28;20136;-79
2023/12/27 12:20:03;;;;;;;1.65;0.60;;;;;;;;;;5865340;28;20124;-79
2023/12/27 12:22:56;;;;;;;1.17;1.05;;;;;;;;;;5865110;28;20128;-78
2023/12/27 12:25:47;;;;;;;1.67;1.00;;;;;;;;;;5863586;28;20045;-79
2023/12/27 12:28:38;;;;;;;6.38;1.60;;;;;;;;;;5863274;28;20049;-79
2023/12/27 12:31:31;;;;;;;2.78;1.30;;;;;;;;;;5863783;28;20042;-79
2023/12/27 12:34:23;;;;;;;1.00;0.82;;;;;;;;;;5863122;28;20446;-78
2023/12/27 12:37:15;;;;;;;7.35;2.67;;;;;;;;;;5864507;28;20059;-80
2023/12/27 12:40:07;;;;;;;1.77;0.80;;;;;;;;;;5863099;28;20057;-78
2023/12/27 12:42:59;;;;;;;10.20;1.35;;;;;;;;;;5865070;28;20620;-78
2023/12/27 12:45:50;;;;;;;4.93;1.73;;;;;;;;;;5863042;28;20064;-78
2023/12/27 12:48:43;;;;;;;4.78;1.77;;;;;;;;;;5862964;28;20140;-79
2023/12/27 12:51:36;;;;;;;1.65;1.00;;;;;;;;;;5879212;28;20041;-78
2023/12/27 12:54:27;;;;;;;6.55;1.95;;;;;;;;;;5864057;28;20131;-78
2023/12/27 12:57:18;;;;;;;9.40;2.33;;;;;;;;;;5861943;28;20049;-78
2023/12/27 13:00:09;;;;;;;1.15;1.08;;;;;;;;;;5879153;28;20533;-78
2023/12/27 13:03:06;;;;;;;2.15;1.70;;;;;;;;;;5879666;28;20128;-79
2023/12/27 13:05:57;;;;;;;4.43;1.85;;;;;;;;;;5862827;28;20112;-78
2023/12/27 13:08:52;;;;;;;6.30;1.70;;;;;;;;;;5862457;28;20049;-78
2023/12/27 13:11:42;;;;;;;5.53;1.48;;;;;;;;;;5862673;28;20116;-78
2023/12/27 13:14:42;;;;;;;1.35;1.23;;;;;;;;;;5862120;28;20042;-78
2023/12/27 13:17:33;;;;;;;8.65;1.42;;;;;;;;;;5862156;28;20049;-78
2023/12/27 13:20:24;;;;;;;1.17;0.90;;;;;;;;;;5863577;28;20049;-78
2023/12/27 13:23:15;;;;;;;5.40;2.10;;;;;;;;;;5862258;28;20132;-78
2023/12/27 13:26:06;;;;;;;5.32;2.40;;;;;;;;;;5845754;28;20120;-78
2023/12/27 13:28:57;;;;;;;2.20;1.33;;;;;;;;;;5862520;28;20419;-78
2023/12/27 13:31:48;;;;;;;2.80;1.88;;;;;;;;;;5862037;28;20055;-78
2023/12/27 13:34:39;;;;;;;6.95;2.63;;;;;;;;;;5861644;28;20049;-78
2023/12/27 13:37:30;;;;;;;2.63;2.13;;;;;;;;;;5861869;28;20049;-78
2023/12/27 13:40:22;;;;;;;5.63;1.90;;;;;;;;;;5861819;28;20590;-78
2023/12/27 13:43:14;;;;;;;5.60;2.65;;;;;;;;;;5878273;28;20128;-78
2023/12/27 13:46:05;;;;;;;7.00;4.82;;;;;;;;;;5861503;28;20383;-78
2023/12/27 13:48:56;;;;;;;27.92;2.90;;;;;;;;;;5846594;28;20052;-78
2023/12/27 13:51:47;;;;;;;1.58;1.48;;;;;;;;;;5862420;28;20041;-78
2023/12/27 13:54:38;;;;;;;1.00;0.93;;;;;;;;;;5861528;28;20137;-78
2023/12/27 13:57:29;;;;;;;1.75;1.65;;;;;;;;;;5862665;28;20122;-78
2023/12/27 14:00:20;;;;;;;2.33;1.70;;;;;;;;;;5862936;28;20064;-78
2023/12/27 14:03:12;;;;;;;1.95;1.30;;;;;;;;;;5862599;28;20072;-78
2023/12/27 14:06:04;;;;;;;1.50;1.40;;;;;;;;;;5861477;28;20075;-78
2023/12/27 14:08:55;;;;;;;3.55;2.00;;;;;;;;;;5877786;28;20049;-78
2023/12/27 14:11:46;;;;;;;6.18;4.45;;;;;;;;;;5862611;28;20049;-78
2023/12/27 14:14:37;;;;;;;32.20;20.92;;;;;;;;;;5862128;28;20133;-78
2023/12/27 14:17:28;;;;;;;21.63;11.60;;;;;;;;;;5861001;28;20041;-78
2023/12/27 14:20:19;;;;;;;15.05;9.65;;;;;;;;;;5861130;28;20049;-78
2023/12/27 14:23:10;;;;;;;8.18;5.32;;;;;;;;;;5861052;28;20124;-78
2023/12/27 14:26:02;;;;;;;5.13;3.92;;;;;;;;;;5861319;28;20068;-78
2023/12/27 14:28:55;;;;;;;4.90;3.55;;;;;;;;;;5862829;28;20140;-78
2023/12/27 14:31:46;;;;;;;2.72;2.50;;;;;;;;;;5862369;28;20419;-78
2023/12/27 14:34:37;;;;;;;8.40;4.40;;;;;;;;;;5876863;28;20533;-78
2023/12/27 14:37:31;;;;;;;3.45;3.15;;;;;;;;;;5861178;28;20626;-78
2023/12/27 14:40:22;;;;;;;10.45;3.47;;;;;;;;;;5860793;28;20046;-78
2023/12/27 14:43:13;;;;;;;9.45;4.05;;;;;;;;;;5860851;28;20542;-78
2023/12/27 14:46:08;;;;;;;35.25;7.82;;;;;;;;;;5860539;28;20053;-78
2023/12/27 14:48:59;;;;;;;10.60;8.70;;;;;;;;;;5861101;28;20159;-78
2023/12/27 14:51:50;;;;;;;12.00;6.85;;;;;;;;;;5860849;28;20144;-78
2023/12/27 14:54:41;;;;;;;8.43;6.32;;;;;;;;;;5860564;28;20049;-78
2023/12/27 14:57:33;;;;;;;19.02;9.05;;;;;;;;;;5860688;28;20045;-78
2023/12/27 15:00:24;;;;;;;19.38;8.70;;;;;;;;;;5861977;28;20053;-78
2023/12/27 15:03:15;;;;;;;9.55;5.95;;;;;;;;;;5876973;28;20052;-78
2023/12/27 15:06:09;;;;;;;23.35;8.73;;;;;;;;;;5860433;28;20057;-78
2023/12/27 15:09:00;;;;;;;24.25;7.63;;;;;;;;;;5860830;28;20125;-78
2023/12/27 15:11:51;;;;;;;19.38;3.42;;;;;;;;;;5860582;28;20041;-78
2023/12/27 15:14:41;;;;;;;18.70;4.97;;;;;;;;;;5860242;28;20044;-78
2023/12/27 15:17:33;;;;;;;7.10;4.30;;;;;;;;;;5860394;28;20049;-78
2023/12/27 15:20:24;;;;;;;7.95;4.43;;;;;;;;;;5861365;28;20466;-78
2023/12/27 15:23:15;;;;;;;10.40;4.55;;;;;;;;;;5881315;28;20057;-78
2023/12/27 15:26:06;;;;;;;5.82;2.85;;;;;;;;;;5864822;28;20045;-78
2023/12/27 15:28:57;;;;;;;8.05;5.13;;;;;;;;;;5866328;28;20064;-78
2023/12/27 15:31:48;;;;;;;6.75;3.40;;;;;;;;;;5864528;28;20526;-78
2023/12/27 15:34:41;;;;;;;10.07;5.90;;;;;;;;;;5863927;28;20056;-78
2023/12/27 15:37:32;;;;;;;18.52;9.07;;;;;;;;;;5864467;28;20069;-78
2023/12/27 15:40:23;;;;;;;26.65;12.55;;;;;;;;;;5864754;28;20046;-78
2023/12/27 15:43:14;;;;;;;37.65;13.82;;;;;;;;;;5865702;28;20042;-78
2023/12/27 15:46:14;;;;;;;43.05;13.95;;;;;;;;;;5864082;28;20045;-78
2023/12/27 15:49:06;;;;;;;23.38;10.00;;;;;;;;;;5848088;28;20422;-78
2023/12/27 15:51:58;;;;;;;31.33;12.00;;;;;;;;;;5864549;28;20052;-78
2023/12/27 15:54:50;;;;;;;19.50;8.70;;;;;;;;;;5865256;28;20499;-78
2023/12/27 15:57:41;;;;;;;19.40;7.60;;;;;;;;;;5865088;28;20123;-77
2023/12/27 16:00:32;;;;;;;17.33;5.43;;;;;;;;;;5864002;28;20046;-77
2023/12/27 16:03:23;;;;;;;22.23;8.77;;;;;;;;;;5863720;28;20045;-78
2023/12/27 16:06:14;;;;;;;16.15;6.38;;;;;;;;;;5880566;28;20055;-77
2023/12/27 16:09:05;;;;;;;11.85;6.57;;;;;;;;;;5847506;28;20192;-77
2023/12/27 16:11:56;;;;;;;14.10;7.97;;;;;;;;;;5864273;28;20046;-77
2023/12/27 16:14:47;;;;;;;33.60;15.02;;;;;;;;;;5847075;28;20415;-77
2023/12/27 16:17:38;;;;;;;27.45;14.25;;;;;;;;;;5863511;28;20057;-77
2023/12/27 16:20:29;;;;;;;23.23;9.77;;;;;;;;;;5863815;28;20045;-77
2023/12/27 16:23:20;;;;;;;32.80;11.05;;;;;;;;;;5863817;28;20387;-77
2023/12/27 16:26:11;;;;;;;31.38;12.15;;;;;;;;;;5863669;28;20072;-77
2023/12/27 16:29:06;;;;;;;23.15;10.27;;;;;;;;;;5830658;28;20415;-77
2023/12/27 16:31:57;;;;;;;18.55;9.73;;;;;;;;;;5840667;28;20045;-77
2023/12/27 16:34:51;;;;;;;15.73;8.27;;;;;;;;;;5840512;28;20049;-77
2023/12/27 16:37:44;;;;;;;15.35;8.10;;;;;;;;;;5840990;28;20173;-77
2023/12/27 16:40:35;;;;;;;14.48;6.57;;;;;;;;;;5840109;28;20476;-77
2023/12/27 16:43:28;;;;;;;12.52;7.05;;;;;;;;;;5856684;28;20532;-77
2023/12/27 16:46:19;;;;;;;25.75;10.93;;;;;;;;;;5842745;28;20716;-77
2023/12/27 16:49:10;;;;;;;28.92;12.02;;;;;;;;;;5856450;28;20524;-77
2023/12/27 16:52:02;;;;;;;27.60;11.82;;;;;;;;;;5839851;28;20129;-77
2023/12/27 16:54:53;;;;;;;24.10;10.48;;;;;;;;;;5840213;28;20067;-77
2023/12/27 16:57:44;;;;;;;42.30;9.35;;;;;;;;;;5839665;28;20041;-77
2023/12/27 17:00:36;;;;;;;24.00;7.72;;;;;;;;;;5839900;28;20504;-77
2023/12/27 17:03:27;;;;;;;26.45;13.38;;;;;;;;;;5823338;28;20049;-77
2023/12/27 17:06:18;;;;;;;24.80;11.73;;;;;;;;;;5839292;28;20064;-77